Royal Klipper — PCIH — position and weather

sailwx.info

Track history (hours):
 
Tides and Currents Weather Stations Pressure Air Temp Water Temp Dewpoint Dewpoint Depression Visibility Wind Speed Wind Dir Waves Ship Positions

Royal Klipper

Last reported at 2017-May-25 18:08 UTC. Time now 2017-May-27 19:24 UTC.
Position N 27°52' W 016°22'.

Type: Cargo ship. MMSI: 246428000.

Date/timePositionNaut miles runAvg speedWind from/ knotsBaromVisibWave heightAir tempDewpointWater temp
2017-May-25 18:08N 27°52' W 016°22'520.0
2017-May-25 17:52N 27°57' W 016°20'1119.9
2017-May-25 17:19N 28°07' W 016°14'820.1
2017-May-25 16:55N 28°13' W 016°08'1019.9
2017-May-25 16:25N 28°21' W 016°01'819.3
2017-May-25 16:00N 28°27' W 015°55'1019.1
2017-May-25 15:30N 28°34' W 015°49'918.9
2017-May-25 15:00N 28°43' W 015°44'1019.1
2017-May-25 14:30N 28°52' W 015°40'4618.5
2017-May-25 12:00N 29°36' W 015°24'59919.0 330 / 101018.710.8 22.114.7
2017-May-24 04:29N 39°07' W 011°43'919.3
2017-May-24 04:00N 39°16' W 011°39'1019.0
2017-May-24 03:30N 39°25' W 011°35'918.9
2017-May-24 03:00N 39°34' W 011°31'919.0
2017-May-24 02:30N 39°43' W 011°27'918.9
2017-May-24 02:00N 39°52' W 011°23'1019.1
2017-May-24 01:30N 40°01' W 011°19'1019.1
2017-May-24 01:00N 40°10' W 011°15'919.1
2017-May-24 00:30N 40°19' W 011°12'1019.3
2017-May-24 00:00N 40°28' W 011°09'1319.0
2017-May-23 23:18N 40°41' W 011°04'819.0
2017-May-23 22:53N 40°49' W 011°01'56418.3
2017-May-22 16:05N 49°11' W 005°00'218.0
2017-May-22 15:57N 49°13' W 004°57'917.9
2017-May-22 15:26N 49°18' W 004°45'917.4
2017-May-22 14:56N 49°22' W 004°34'1217.4
2017-May-22 14:15N 49°27' W 004°18'717.3
2017-May-22 13:52N 49°31' W 004°09'617.4
2017-May-22 13:30N 49°34' W 004°00'917.7
2017-May-22 12:59N 49°38' W 003°48'918.1
2017-May-22 12:28N 49°43' W 003°36'818.4
2017-May-22 12:00N 49°49' W 003°26'1019.3
2017-May-22 11:30N 49°54' W 003°13'1019.9
2017-May-22 11:00N 49°59' W 002°59'1020.4
2017-May-22 10:30N 50°01' W 002°44'1020.9
2017-May-22 10:00N 50°04' W 002°28'1121.1
2017-May-22 09:30N 50°06' W 002°12'1020.5
2017-May-22 09:00N 50°09' W 001°57'2218.1
2017-May-22 07:49N 50°15' W 001°24'517.1
2017-May-22 07:30N 50°16' W 001°16'816.5
2017-May-22 07:00N 50°19' W 001°04'815.9
2017-May-22 06:30N 50°21' W 000°52'815.2
2017-May-22 06:00N 50°23' W 000°41'815.3
2017-May-22 05:30N 50°25' W 000°29'815.4
2017-May-22 05:00N 50°27' W 000°17'815.8
2017-May-22 04:30N 50°30' W 000°06'816.0
2017-May-22 04:00N 50°31' E 000°07'816.4
2017-May-22 03:30N 50°34' E 000°19'917.1
2017-May-22 03:00N 50°36' E 000°32'917.5
2017-May-22 02:30N 50°40' E 000°44'917.9
2017-May-22 02:00N 50°45' E 000°56'918.4
2017-May-22 01:30N 50°50' E 001°08'918.1
2017-May-22 01:00N 50°56' E 001°20'917.8
2017-May-22 00:30N 51°02' E 001°29'817.0
2017-May-22 00:00N 51°08' E 001°39'816.3
2017-May-21 23:30N 51°14' E 001°47'816.1
2017-May-21 23:00N 51°21' E 001°54'816.0
2017-May-21 22:30N 51°28' E 002°01'816.0
2017-May-21 22:00N 51°34' E 002°09'815.9
2017-May-21 21:30N 51°40' E 002°18'916.0
2017-May-21 20:58N 51°46' E 002°27'3915.8
2017-May-21 18:29N 52°05' E 003°24'817.0
2017-May-21 18:00N 52°03' E 003°37'917.9
2017-May-21 17:30N 52°02' E 003°51'612.3
2017-May-21 17:00N 52°00' E 004°01'713.4
2017-May-21 16:30N 51°57' E 004°10'612.7
2017-May-21 16:00N 51°54' E 004°19'4 8.8
2017-May-21 15:31N 51°54' E 004°26'1 2.5
2017-May-21 15:00N 51°53' E 004°26'0 0.0
2017-May-21 14:30N 51°53' E 004°26'0 0.0
2017-May-21 13:30N 51°53' E 004°26'0 0.0
2017-May-21 13:00N 51°53' E 004°26'0 0.0
2017-May-21 12:30N 51°53' E 004°26'0 0.0
2017-May-21 12:01N 51°53' E 004°26'0 0.0
2017-May-21 11:30N 51°53' E 004°26'0 0.0
2017-May-21 11:00N 51°53' E 004°26'0 0.0
2017-May-21 10:30N 51°53' E 004°26'0 0.0
2017-May-21 10:00N 51°53' E 004°26'0 0.0
2017-May-21 09:31N 51°53' E 004°26'0 0.0
2017-May-21 09:00N 51°53' E 004°26'0 0.0
2017-May-21 08:30N 51°53' E 004°26'0 0.0
2017-May-21 08:00N 51°53' E 004°26'0 0.0
2017-May-21 07:30N 51°53' E 004°26'0 0.0
2017-May-21 07:00N 51°53' E 004°26'0 0.0
2017-May-21 06:30N 51°53' E 004°26'0 0.0
2017-May-21 06:00N 51°53' E 004°26'0 0.0
2017-May-21 05:30N 51°53' E 004°26'0 0.0
2017-May-21 05:00N 51°53' E 004°26'0 0.0
2017-May-21 04:30N 51°53' E 004°26'0 0.0
2017-May-21 04:00N 51°53' E 004°26'1 2.3
2017-May-21 03:30N 51°54' E 004°26'4 7.8
2017-May-21 03:01N 51°54' E 004°20'4 8.9
2017-May-21 02:30N 51°56' E 004°13'5 9.1
2017-May-21 02:00N 51°58' E 004°07'510.2
2017-May-21 01:30N 52°00' E 003°60'5 9.9
2017-May-21 01:00N 52°00' E 003°52'510.5
2017-May-21 00:31N 51°59' E 003°43'4 7.1
2017-May-21 00:00N 51°58' E 003°38'510.3
2017-May-20 23:28N 51°56' E 003°29'611.6
2017-May-20 22:59N 51°55' E 003°21'1516.5
2017-May-20 22:05N 51°50' E 002°58'818.7
2017-May-20 21:40N 51°47' E 002°46'617.1
2017-May-20 21:18N 51°42' E 002°41'1018.4
2017-May-20 20:47N 51°32' E 002°43'518.4
2017-May-20 20:30N 51°27' E 002°43'611.7
2017-May-20 20:00N 51°22' E 002°48'714.2
2017-May-20 19:31N 51°24' E 002°60'713.1
2017-May-20 19:00N 51°23' E 003°10'3 6.6
2017-May-20 18:30N 51°20' E 003°13'0 0.0
2017-May-20 18:00N 51°20' E 003°13'1 1.6
2017-May-20 17:28N 51°19' E 003°13'0 0.0
2017-May-20 16:58N 51°19' E 003°13'0 0.0
2017-May-20 16:28N 51°19' E 003°13'0 0.0
2017-May-20 15:58N 51°19' E 003°13'0 0.0
2017-May-20 15:28N 51°19' E 003°13'0 0.0
2017-May-20 14:58N 51°19' E 003°13'0 0.0
2017-May-20 14:28N 51°19' E 003°13'0 0.0
2017-May-20 13:28N 51°19' E 003°13'0 0.0
2017-May-20 12:58N 51°19' E 003°13'0 0.0
2017-May-20 12:28N 51°19' E 003°13'0 0.0
2017-May-20 11:58N 51°19' E 003°13'0 0.0
2017-May-20 11:28N 51°19' E 003°13'0 0.0
2017-May-20 10:58N 51°19' E 003°13'0 0.0
2017-May-20 10:22N 51°19' E 003°13'0 0.0
2017-May-20 09:58N 51°19' E 003°13'0 0.0
2017-May-20 09:28N 51°19' E 003°13'0 0.0
2017-May-20 08:58N 51°19' E 003°13'0 0.0
2017-May-20 08:25N 51°19' E 003°13'0 0.0
2017-May-20 07:58N 51°19' E 003°13'0 0.0
2017-May-20 07:28N 51°19' E 003°13'0 0.0
2017-May-20 06:58N 51°19' E 003°13'0 0.0
2017-May-20 06:28N 51°19' E 003°13'0 0.0
2017-May-20 05:58N 51°19' E 003°13'0 0.0
2017-May-20 05:28N 51°19' E 003°13'0 0.0
2017-May-20 04:58N 51°19' E 003°13'0 0.0
2017-May-20 04:28N 51°19' E 003°13'0 0.0
2017-May-20 03:58N 51°19' E 003°13'0 0.0
2017-May-20 03:28N 51°19' E 003°13'0 0.0
2017-May-20 02:58N 51°19' E 003°13'0 0.0
2017-May-20 02:28N 51°19' E 003°13'0 0.0
2017-May-20 01:58N 51°19' E 003°13'0 0.0
2017-May-20 01:28N 51°19' E 003°13'0 0.0
2017-May-20 00:58N 51°19' E 003°13'0 0.0
2017-May-20 00:28N 51°19' E 003°13'0 0.0
2017-May-19 23:58N 51°19' E 003°13'0 0.0
2017-May-19 23:28N 51°19' E 003°13'0 0.0
2017-May-19 22:58N 51°19' E 003°13'0 0.0
2017-May-19 22:28N 51°19' E 003°13'0 0.0
2017-May-19 21:58N 51°19' E 003°13'0 0.0
2017-May-19 21:28N 51°19' E 003°13'0 0.0
2017-May-19 20:58N 51°19' E 003°13'0 0.0
2017-May-19 20:28N 51°19' E 003°13'0 0.0
2017-May-19 19:58N 51°19' E 003°13'0 0.0
2017-May-19 19:28N 51°19' E 003°13'0 0.0
2017-May-19 18:58N 51°19' E 003°13'0 0.0
2017-May-19 18:28N 51°19' E 003°13'0 0.0
2017-May-19 17:58N 51°19' E 003°13'0 0.0
2017-May-19 17:28N 51°19' E 003°13'0 0.0
2017-May-19 16:58N 51°19' E 003°13'0 0.0
2017-May-19 16:28N 51°19' E 003°13'0 0.0
2017-May-19 15:58N 51°19' E 003°13'0 0.0
2017-May-19 15:28N 51°19' E 003°13'0 0.0
2017-May-19 14:58N 51°19' E 003°13'0 0.0
2017-May-19 13:58N 51°19' E 003°13'0 0.0
2017-May-19 13:28N 51°19' E 003°13'0 0.0
2017-May-19 12:58N 51°19' E 003°13'0 0.0
2017-May-19 12:28N 51°19' E 003°13'0 0.0
2017-May-19 11:58N 51°19' E 003°13'0 0.0
2017-May-19 11:28N 51°19' E 003°13'0 0.0
2017-May-19 10:58N 51°19' E 003°13'0 0.0
2017-May-19 10:28N 51°19' E 003°13'0 0.0
2017-May-19 09:58N 51°19' E 003°13'0 0.0
2017-May-19 09:28N 51°19' E 003°13'0 0.0
2017-May-19 08:58N 51°19' E 003°13'0 0.0
2017-May-19 08:28N 51°19' E 003°13'0 0.0
2017-May-19 07:58N 51°19' E 003°13'0 0.0
2017-May-19 07:28N 51°19' E 003°13'0 0.0
2017-May-19 06:58N 51°19' E 003°13'0 0.0
2017-May-19 06:28N 51°19' E 003°13'0 0.0
2017-May-19 05:55N 51°19' E 003°13'0 0.0
2017-May-19 05:28N 51°19' E 003°13'0 0.0
2017-May-19 04:58N 51°19' E 003°13'0 0.0
2017-May-19 04:28N 51°19' E 003°13'0 0.0
2017-May-19 03:55N 51°19' E 003°13'0 0.0
2017-May-19 03:28N 51°19' E 003°13'0 0.0
2017-May-19 02:58N 51°19' E 003°13'0 0.0
2017-May-19 02:28N 51°19' E 003°13'0 0.0
2017-May-19 01:58N 51°19' E 003°13'0 0.0
2017-May-19 01:28N 51°19' E 003°13'0 0.0
2017-May-19 00:58N 51°19' E 003°13'0 0.0
2017-May-19 00:28N 51°19' E 003°13'0 0.0
2017-May-18 23:58N 51°19' E 003°13'0 0.0
2017-May-18 23:28N 51°19' E 003°13'0 0.0
2017-May-18 22:58N 51°19' E 003°13'0 0.0
2017-May-18 22:28N 51°19' E 003°13'0 0.0
2017-May-18 21:58N 51°19' E 003°13'0 0.0
2017-May-18 21:28N 51°19' E 003°13'0 0.0
2017-May-18 20:58N 51°19' E 003°13'0 0.0
2017-May-18 20:28N 51°19' E 003°13'0 0.0
2017-May-18 19:58N 51°19' E 003°13'0 0.0
2017-May-18 19:28N 51°19' E 003°13'0 0.0
2017-May-18 18:58N 51°19' E 003°13'0 0.0
2017-May-18 18:28N 51°19' E 003°13'0 0.0
2017-May-18 17:58N 51°19' E 003°13'0 0.0
2017-May-18 17:30N 51°19' E 003°13'0 0.0
2017-May-18 17:00N 51°19' E 003°13'0 0.0
2017-May-18 16:30N 51°19' E 003°13'0 0.0
2017-May-18 16:00N 51°19' E 003°13'0 0.0
2017-May-18 15:30N 51°19' E 003°13'0 0.0
2017-May-18 15:00N 51°19' E 003°13'0 0.0
2017-May-18 14:00N 51°19' E 003°13'0 0.0
2017-May-18 13:30N 51°19' E 003°13'0 0.0
2017-May-18 13:00N 51°19' E 003°13'0 0.0
2017-May-18 12:30N 51°19' E 003°13'0 0.0
2017-May-18 12:00N 51°19' E 003°13'0 0.0
2017-May-18 11:30N 51°19' E 003°13'0 0.0
2017-May-18 11:00N 51°19' E 003°13'0 0.0
2017-May-18 10:30N 51°19' E 003°13'0 0.0
2017-May-18 10:00N 51°19' E 003°13'0 0.0
2017-May-18 09:30N 51°19' E 003°13'0 0.0
2017-May-18 09:00N 51°19' E 003°13'0 0.0
2017-May-18 08:30N 51°19' E 003°13'0 0.0
2017-May-18 08:00N 51°19' E 003°13'0 0.0
2017-May-18 07:30N 51°19' E 003°13'0 0.0
2017-May-18 07:00N 51°19' E 003°13'0 0.0
2017-May-18 06:30N 51°19' E 003°13'0 0.0
2017-May-18 06:00N 51°19' E 003°13'0 0.0
2017-May-18 05:30N 51°19' E 003°13'0 0.0
2017-May-18 05:00N 51°19' E 003°13'0 0.0
2017-May-18 04:30N 51°19' E 003°13'0 0.0
2017-May-18 04:00N 51°19' E 003°13'0 0.0
2017-May-18 03:30N 51°19' E 003°13'0 0.0
2017-May-18 03:00N 51°19' E 003°13'0 0.0
2017-May-18 02:30N 51°19' E 003°13'0 0.0
2017-May-18 02:00N 51°19' E 003°13'0 0.0
2017-May-18 01:30N 51°19' E 003°13'0 0.0
2017-May-18 01:00N 51°19' E 003°13'0 0.0
2017-May-18 00:30N 51°19' E 003°13'0 0.0
2017-May-18 00:00N 51°19' E 003°13'0 0.0
2017-May-17 23:30N 51°19' E 003°13'0 0.0
2017-May-17 23:00N 51°19' E 003°13'0 0.0
2017-May-17 22:30N 51°19' E 003°13'0 0.0
2017-May-17 22:00N 51°19' E 003°13'0 0.0
2017-May-17 21:30N 51°19' E 003°13'0 0.0
2017-May-17 21:00N 51°19' E 003°13'0 0.0
2017-May-17 20:30N 51°19' E 003°13'0 0.0
2017-May-17 20:00N 51°19' E 003°13'0 0.0
2017-May-17 19:30N 51°19' E 003°13'0 0.0
2017-May-17 19:00N 51°19' E 003°13'0 0.0
2017-May-17 18:30N 51°19' E 003°13'0 0.0
2017-May-17 18:00N 51°19' E 003°13'0 0.0
2017-May-17 17:30N 51°19' E 003°13'0 0.0
2017-May-17 17:00N 51°19' E 003°13'0 0.0
2017-May-17 16:30N 51°19' E 003°13'0 0.0
2017-May-17 16:00N 51°19' E 003°13'0 0.0
2017-May-17 15:30N 51°19' E 003°13'0 0.0
2017-May-17 15:00N 51°19' E 003°13'0 0.0
2017-May-17 14:01N 51°19' E 003°13'0 0.0
2017-May-17 13:31N 51°19' E 003°13'0 0.0
2017-May-17 13:01N 51°19' E 003°13'0 0.0
2017-May-17 12:31N 51°19' E 003°13'0 0.0
2017-May-17 12:01N 51°19' E 003°13'0 0.0
2017-May-17 11:31N 51°19' E 003°13'0 0.0
2017-May-17 11:01N 51°19' E 003°13'0 0.0
2017-May-17 10:31N 51°19' E 003°13'0 0.0
2017-May-17 10:01N 51°19' E 003°13'0 0.0
2017-May-17 09:30N 51°19' E 003°13'1 1.7
2017-May-17 09:01N 51°20' E 003°13'0 0.0
2017-May-17 08:30N 51°20' E 003°13'1 1.2
2017-May-17 08:01N 51°21' E 003°13'4 8.4
2017-May-17 07:30N 51°24' E 003°08'815.6
2017-May-17 07:00N 51°22' E 002°55'912.1
2017-May-17 06:15N 51°22' E 002°41'2 6.2
2017-May-17 06:00N 51°22' E 002°38'3 6.2
2017-May-17 05:29N 51°22' E 002°33'4 8.4
2017-May-17 05:00N 51°21' E 002°27'611.8
2017-May-17 04:30N 51°18' E 002°19'713.4
2017-May-17 04:00N 51°15' E 002°09'815.8
2017-May-17 03:30N 51°11' E 001°59'816.1
2017-May-17 03:00N 51°07' E 001°47'816.5
2017-May-17 02:30N 51°01' E 001°38'917.3
2017-May-17 02:00N 50°55' E 001°29'916.8
2017-May-17 01:29N 50°47' E 001°24'816.2
2017-May-17 01:00N 50°40' E 001°18'916.7
2017-May-17 00:28N 50°35' E 001°07'2116.9
2017-May-16 23:15N 50°25' E 000°38'416.6
2017-May-16 23:00N 50°24' E 000°32'817.0
2017-May-16 22:30N 50°21' E 000°19'816.9
2017-May-16 22:00N 50°19' E 000°07'816.8
2017-May-16 21:30N 50°17' W 000°06'917.8
2017-May-16 21:00N 50°15' W 000°20'917.5
2017-May-16 20:30N 50°12' W 000°33'917.3
2017-May-16 20:00N 50°09' W 000°46'817.0
2017-May-16 19:30N 50°07' W 000°58'917.3
2017-May-16 19:00N 50°06' W 001°11'917.1
2017-May-16 18:30N 50°04' W 001°25'8516.8
2017-May-16 13:25N 49°42' W 003°33'1316.2
2017-May-16 12:37N 49°39' W 003°53'816.6
2017-May-16 12:06N 49°37' W 004°05'9016.9
2017-May-16 06:44N 49°00' W 006°12'  
Track history (hours):
 
Tides and Currents Weather Stations Pressure Air Temp Water Temp Dewpoint Dewpoint Depression Visibility Wind Speed Wind Dir Waves Ship Positions

Royal Klipper

Last reported at 2017-May-25 18:08 UTC. Time now 2017-May-27 19:24 UTC.
Position N 27°52' W 016°22'.

Type: Cargo ship. MMSI: 246428000.

Date/timePositionNaut miles runAvg speedWind from/ knotsBaromVisibWave heightAir tempDewpointWater temp
2017-May-25 18:08N 27°52' W 016°22'520.0
2017-May-25 17:52N 27°57' W 016°20'1119.9
2017-May-25 17:19N 28°07' W 016°14'820.1
2017-May-25 16:55N 28°13' W 016°08'1019.9
2017-May-25 16:25N 28°21' W 016°01'819.3
2017-May-25 16:00N 28°27' W 015°55'1019.1
2017-May-25 15:30N 28°34' W 015°49'918.9
2017-May-25 15:00N 28°43' W 015°44'1019.1
2017-May-25 14:30N 28°52' W 015°40'4618.5
2017-May-25 12:00N 29°36' W 015°24'59919.0 330 / 101018.710.8 22.114.7
2017-May-24 04:29N 39°07' W 011°43'919.3
2017-May-24 04:00N 39°16' W 011°39'1019.0
2017-May-24 03:30N 39°25' W 011°35'918.9
2017-May-24 03:00N 39°34' W 011°31'919.0
2017-May-24 02:30N 39°43' W 011°27'918.9
2017-May-24 02:00N 39°52' W 011°23'1019.1
2017-May-24 01:30N 40°01' W 011°19'1019.1
2017-May-24 01:00N 40°10' W 011°15'919.1
2017-May-24 00:30N 40°19' W 011°12'1019.3
2017-May-24 00:00N 40°28' W 011°09'1319.0
2017-May-23 23:18N 40°41' W 011°04'819.0
2017-May-23 22:53N 40°49' W 011°01'56418.3
2017-May-22 16:05N 49°11' W 005°00'218.0
2017-May-22 15:57N 49°13' W 004°57'917.9
2017-May-22 15:26N 49°18' W 004°45'917.4
2017-May-22 14:56N 49°22' W 004°34'1217.4
2017-May-22 14:15N 49°27' W 004°18'717.3
2017-May-22 13:52N 49°31' W 004°09'617.4
2017-May-22 13:30N 49°34' W 004°00'917.7
2017-May-22 12:59N 49°38' W 003°48'918.1
2017-May-22 12:28N 49°43' W 003°36'818.4
2017-May-22 12:00N 49°49' W 003°26'1019.3
2017-May-22 11:30N 49°54' W 003°13'1019.9
2017-May-22 11:00N 49°59' W 002°59'1020.4
2017-May-22 10:30N 50°01' W 002°44'1020.9
2017-May-22 10:00N 50°04' W 002°28'1121.1
2017-May-22 09:30N 50°06' W 002°12'1020.5
2017-May-22 09:00N 50°09' W 001°57'2218.1
2017-May-22 07:49N 50°15' W 001°24'517.1
2017-May-22 07:30N 50°16' W 001°16'816.5
2017-May-22 07:00N 50°19' W 001°04'815.9
2017-May-22 06:30N 50°21' W 000°52'815.2
2017-May-22 06:00N 50°23' W 000°41'815.3
2017-May-22 05:30N 50°25' W 000°29'815.4
2017-May-22 05:00N 50°27' W 000°17'815.8
2017-May-22 04:30N 50°30' W 000°06'816.0
2017-May-22 04:00N 50°31' E 000°07'816.4
2017-May-22 03:30N 50°34' E 000°19'917.1
2017-May-22 03:00N 50°36' E 000°32'917.5
2017-May-22 02:30N 50°40' E 000°44'917.9
2017-May-22 02:00N 50°45' E 000°56'918.4
2017-May-22 01:30N 50°50' E 001°08'918.1
2017-May-22 01:00N 50°56' E 001°20'917.8
2017-May-22 00:30N 51°02' E 001°29'817.0
2017-May-22 00:00N 51°08' E 001°39'816.3
2017-May-21 23:30N 51°14' E 001°47'816.1
2017-May-21 23:00N 51°21' E 001°54'816.0
2017-May-21 22:30N 51°28' E 002°01'816.0
2017-May-21 22:00N 51°34' E 002°09'815.9
2017-May-21 21:30N 51°40' E 002°18'916.0
2017-May-21 20:58N 51°46' E 002°27'3915.8
2017-May-21 18:29N 52°05' E 003°24'817.0
2017-May-21 18:00N 52°03' E 003°37'917.9
2017-May-21 17:30N 52°02' E 003°51'612.3
2017-May-21 17:00N 52°00' E 004°01'713.4
2017-May-21 16:30N 51°57' E 004°10'612.7
2017-May-21 16:00N 51°54' E 004°19'4 8.8
2017-May-21 15:31N 51°54' E 004°26'1 2.5
2017-May-21 15:00N 51°53' E 004°26'0 0.0
2017-May-21 14:30N 51°53' E 004°26'0 0.0
2017-May-21 13:30N 51°53' E 004°26'0 0.0
2017-May-21 13:00N 51°53' E 004°26'0 0.0
2017-May-21 12:30N 51°53' E 004°26'0 0.0
2017-May-21 12:01N 51°53' E 004°26'0 0.0
2017-May-21 11:30N 51°53' E 004°26'0 0.0
2017-May-21 11:00N 51°53' E 004°26'0 0.0
2017-May-21 10:30N 51°53' E 004°26'0 0.0
2017-May-21 10:00N 51°53' E 004°26'0 0.0
2017-May-21 09:31N 51°53' E 004°26'0 0.0
2017-May-21 09:00N 51°53' E 004°26'0 0.0
2017-May-21 08:30N 51°53' E 004°26'0 0.0
2017-May-21 08:00N 51°53' E 004°26'0 0.0
2017-May-21 07:30N 51°53' E 004°26'0 0.0
2017-May-21 07:00N 51°53' E 004°26'0 0.0
2017-May-21 06:30N 51°53' E 004°26'0 0.0
2017-May-21 06:00N 51°53' E 004°26'0 0.0
2017-May-21 05:30N 51°53' E 004°26'0 0.0
2017-May-21 05:00N 51°53' E 004°26'0 0.0
2017-May-21 04:30N 51°53' E 004°26'0 0.0
2017-May-21 04:00N 51°53' E 004°26'1 2.3
2017-May-21 03:30N 51°54' E 004°26'4 7.8
2017-May-21 03:01N 51°54' E 004°20'4 8.9
2017-May-21 02:30N 51°56' E 004°13'5 9.1
2017-May-21 02:00N 51°58' E 004°07'510.2
2017-May-21 01:30N 52°00' E 003°60'5 9.9
2017-May-21 01:00N 52°00' E 003°52'510.5
2017-May-21 00:31N 51°59' E 003°43'4 7.1
2017-May-21 00:00N 51°58' E 003°38'510.3
2017-May-20 23:28N 51°56' E 003°29'611.6
2017-May-20 22:59N 51°55' E 003°21'1516.5
2017-May-20 22:05N 51°50' E 002°58'818.7
2017-May-20 21:40N 51°47' E 002°46'617.1
2017-May-20 21:18N 51°42' E 002°41'1018.4
2017-May-20 20:47N 51°32' E 002°43'518.4
2017-May-20 20:30N 51°27' E 002°43'611.7
2017-May-20 20:00N 51°22' E 002°48'714.2
2017-May-20 19:31N 51°24' E 002°60'713.1
2017-May-20 19:00N 51°23' E 003°10'3 6.6
2017-May-20 18:30N 51°20' E 003°13'0 0.0
2017-May-20 18:00N 51°20' E 003°13'1 1.6
2017-May-20 17:28N 51°19' E 003°13'0 0.0
2017-May-20 16:58N 51°19' E 003°13'0 0.0
2017-May-20 16:28N 51°19' E 003°13'0 0.0
2017-May-20 15:58N 51°19' E 003°13'0 0.0
2017-May-20 15:28N 51°19' E 003°13'0 0.0
2017-May-20 14:58N 51°19' E 003°13'0 0.0
2017-May-20 14:28N 51°19' E 003°13'0 0.0
2017-May-20 13:28N 51°19' E 003°13'0 0.0
2017-May-20 12:58N 51°19' E 003°13'0 0.0
2017-May-20 12:28N 51°19' E 003°13'0 0.0
2017-May-20 11:58N 51°19' E 003°13'0 0.0
2017-May-20 11:28N 51°19' E 003°13'0 0.0
2017-May-20 10:58N 51°19' E 003°13'0 0.0
2017-May-20 10:22N 51°19' E 003°13'0 0.0
2017-May-20 09:58N 51°19' E 003°13'0 0.0
2017-May-20 09:28N 51°19' E 003°13'0 0.0
2017-May-20 08:58N 51°19' E 003°13'0 0.0
2017-May-20 08:25N 51°19' E 003°13'0 0.0
2017-May-20 07:58N 51°19' E 003°13'0 0.0
2017-May-20 07:28N 51°19' E 003°13'0 0.0
2017-May-20 06:58N 51°19' E 003°13'0 0.0
2017-May-20 06:28N 51°19' E 003°13'0 0.0
2017-May-20 05:58N 51°19' E 003°13'0 0.0
2017-May-20 05:28N 51°19' E 003°13'0 0.0
2017-May-20 04:58N 51°19' E 003°13'0 0.0
2017-May-20 04:28N 51°19' E 003°13'0 0.0
2017-May-20 03:58N 51°19' E 003°13'0 0.0
2017-May-20 03:28N 51°19' E 003°13'0 0.0
2017-May-20 02:58N 51°19' E 003°13'0 0.0
2017-May-20 02:28N 51°19' E 003°13'0 0.0
2017-May-20 01:58N 51°19' E 003°13'0 0.0
2017-May-20 01:28N 51°19' E 003°13'0 0.0
2017-May-20 00:58N 51°19' E 003°13'0 0.0
2017-May-20 00:28N 51°19' E 003°13'0 0.0
2017-May-19 23:58N 51°19' E 003°13'0 0.0
2017-May-19 23:28N 51°19' E 003°13'0 0.0
2017-May-19 22:58N 51°19' E 003°13'0 0.0
2017-May-19 22:28N 51°19' E 003°13'0 0.0
2017-May-19 21:58N 51°19' E 003°13'0 0.0
2017-May-19 21:28N 51°19' E 003°13'0 0.0
2017-May-19 20:58N 51°19' E 003°13'0 0.0
2017-May-19 20:28N 51°19' E 003°13'0 0.0
2017-May-19 19:58N 51°19' E 003°13'0 0.0
2017-May-19 19:28N 51°19' E 003°13'0 0.0
2017-May-19 18:58N 51°19' E 003°13'0 0.0
2017-May-19 18:28N 51°19' E 003°13'0 0.0
2017-May-19 17:58N 51°19' E 003°13'0 0.0
2017-May-19 17:28N 51°19' E 003°13'0 0.0
2017-May-19 16:58N 51°19' E 003°13'0 0.0
2017-May-19 16:28N 51°19' E 003°13'0 0.0
2017-May-19 15:58N 51°19' E 003°13'0 0.0
2017-May-19 15:28N 51°19' E 003°13'0 0.0
2017-May-19 14:58N 51°19' E 003°13'0 0.0
2017-May-19 13:58N 51°19' E 003°13'0 0.0
2017-May-19 13:28N 51°19' E 003°13'0 0.0
2017-May-19 12:58N 51°19' E 003°13'0 0.0
2017-May-19 12:28N 51°19' E 003°13'0 0.0
2017-May-19 11:58N 51°19' E 003°13'0 0.0
2017-May-19 11:28N 51°19' E 003°13'0 0.0
2017-May-19 10:58N 51°19' E 003°13'0 0.0
2017-May-19 10:28N 51°19' E 003°13'0 0.0
2017-May-19 09:58N 51°19' E 003°13'0 0.0
2017-May-19 09:28N 51°19' E 003°13'0 0.0
2017-May-19 08:58N 51°19' E 003°13'0 0.0
2017-May-19 08:28N 51°19' E 003°13'0 0.0
2017-May-19 07:58N 51°19' E 003°13'0 0.0
2017-May-19 07:28N 51°19' E 003°13'0 0.0
2017-May-19 06:58N 51°19' E 003°13'0 0.0
2017-May-19 06:28N 51°19' E 003°13'0 0.0
2017-May-19 05:55N 51°19' E 003°13'0 0.0
2017-May-19 05:28N 51°19' E 003°13'0 0.0
2017-May-19 04:58N 51°19' E 003°13'0 0.0
2017-May-19 04:28N 51°19' E 003°13'0 0.0
2017-May-19 03:55N 51°19' E 003°13'0 0.0
2017-May-19 03:28N 51°19' E 003°13'0 0.0
2017-May-19 02:58N 51°19' E 003°13'0 0.0
2017-May-19 02:28N 51°19' E 003°13'0 0.0
2017-May-19 01:58N 51°19' E 003°13'0 0.0
2017-May-19 01:28N 51°19' E 003°13'0 0.0
2017-May-19 00:58N 51°19' E 003°13'0 0.0
2017-May-19 00:28N 51°19' E 003°13'0 0.0
2017-May-18 23:58N 51°19' E 003°13'0 0.0
2017-May-18 23:28N 51°19' E 003°13'0 0.0
2017-May-18 22:58N 51°19' E 003°13'0 0.0
2017-May-18 22:28N 51°19' E 003°13'0 0.0
2017-May-18 21:58N 51°19' E 003°13'0 0.0
2017-May-18 21:28N 51°19' E 003°13'0 0.0
2017-May-18 20:58N 51°19' E 003°13'0 0.0
2017-May-18 20:28N 51°19' E 003°13'0 0.0
2017-May-18 19:58N 51°19' E 003°13'0 0.0
2017-May-18 19:28N 51°19' E 003°13'0 0.0
2017-May-18 18:58N 51°19' E 003°13'0 0.0
2017-May-18 18:28N 51°19' E 003°13'0 0.0
2017-May-18 17:58N 51°19' E 003°13'0 0.0
2017-May-18 17:30N 51°19' E 003°13'0 0.0
2017-May-18 17:00N 51°19' E 003°13'0 0.0
2017-May-18 16:30N 51°19' E 003°13'0 0.0
2017-May-18 16:00N 51°19' E 003°13'0 0.0
2017-May-18 15:30N 51°19' E 003°13'0 0.0
2017-May-18 15:00N 51°19' E 003°13'0 0.0
2017-May-18 14:00N 51°19' E 003°13'0 0.0
2017-May-18 13:30N 51°19' E 003°13'0 0.0
2017-May-18 13:00N 51°19' E 003°13'0 0.0
2017-May-18 12:30N 51°19' E 003°13'0 0.0
2017-May-18 12:00N 51°19' E 003°13'0 0.0
2017-May-18 11:30N 51°19' E 003°13'0 0.0
2017-May-18 11:00N 51°19' E 003°13'0 0.0
2017-May-18 10:30N 51°19' E 003°13'0 0.0
2017-May-18 10:00N 51°19' E 003°13'0 0.0
2017-May-18 09:30N 51°19' E 003°13'0 0.0
2017-May-18 09:00N 51°19' E 003°13'0 0.0
2017-May-18 08:30N 51°19' E 003°13'0 0.0
2017-May-18 08:00N 51°19' E 003°13'0 0.0
2017-May-18 07:30N 51°19' E 003°13'0 0.0
2017-May-18 07:00N 51°19' E 003°13'0 0.0
2017-May-18 06:30N 51°19' E 003°13'0 0.0
2017-May-18 06:00N 51°19' E 003°13'0 0.0
2017-May-18 05:30N 51°19' E 003°13'0 0.0
2017-May-18 05:00N 51°19' E 003°13'0 0.0
2017-May-18 04:30N 51°19' E 003°13'0 0.0
2017-May-18 04:00N 51°19' E 003°13'0 0.0
2017-May-18 03:30N 51°19' E 003°13'0 0.0
2017-May-18 03:00N 51°19' E 003°13'0 0.0
2017-May-18 02:30N 51°19' E 003°13'0 0.0
2017-May-18 02:00N 51°19' E 003°13'0 0.0
2017-May-18 01:30N 51°19' E 003°13'0 0.0
2017-May-18 01:00N 51°19' E 003°13'0 0.0
2017-May-18 00:30N 51°19' E 003°13'0 0.0
2017-May-18 00:00N 51°19' E 003°13'0 0.0
2017-May-17 23:30N 51°19' E 003°13'0 0.0
2017-May-17 23:00N 51°19' E 003°13'0 0.0
2017-May-17 22:30N 51°19' E 003°13'0 0.0
2017-May-17 22:00N 51°19' E 003°13'0 0.0
2017-May-17 21:30N 51°19' E 003°13'0 0.0
2017-May-17 21:00N 51°19' E 003°13'0 0.0
2017-May-17 20:30N 51°19' E 003°13'0 0.0
2017-May-17 20:00N 51°19' E 003°13'0 0.0
2017-May-17 19:30N 51°19' E 003°13'0 0.0
2017-May-17 19:00N 51°19' E 003°13'0 0.0
2017-May-17 18:30N 51°19' E 003°13'0 0.0
2017-May-17 18:00N 51°19' E 003°13'0 0.0
2017-May-17 17:30N 51°19' E 003°13'0 0.0
2017-May-17 17:00N 51°19' E 003°13'0 0.0
2017-May-17 16:30N 51°19' E 003°13'0 0.0
2017-May-17 16:00N 51°19' E 003°13'0 0.0
2017-May-17 15:30N 51°19' E 003°13'0 0.0
2017-May-17 15:00N 51°19' E 003°13'0 0.0
2017-May-17 14:01N 51°19' E 003°13'0 0.0
2017-May-17 13:31N 51°19' E 003°13'0 0.0
2017-May-17 13:01N 51°19' E 003°13'0 0.0
2017-May-17 12:31N 51°19' E 003°13'0 0.0
2017-May-17 12:01N 51°19' E 003°13'0 0.0
2017-May-17 11:31N 51°19' E 003°13'0 0.0
2017-May-17 11:01N 51°19' E 003°13'0 0.0
2017-May-17 10:31N 51°19' E 003°13'0 0.0
2017-May-17 10:01N 51°19' E 003°13'0 0.0
2017-May-17 09:30N 51°19' E 003°13'1 1.7
2017-May-17 09:01N 51°20' E 003°13'0 0.0
2017-May-17 08:30N 51°20' E 003°13'1 1.2
2017-May-17 08:01N 51°21' E 003°13'4 8.4
2017-May-17 07:30N 51°24' E 003°08'815.6
2017-May-17 07:00N 51°22' E 002°55'912.1
2017-May-17 06:15N 51°22' E 002°41'2 6.2
2017-May-17 06:00N 51°22' E 002°38'3 6.2
2017-May-17 05:29N 51°22' E 002°33'4 8.4
2017-May-17 05:00N 51°21' E 002°27'611.8
2017-May-17 04:30N 51°18' E 002°19'713.4
2017-May-17 04:00N 51°15' E 002°09'815.8
2017-May-17 03:30N 51°11' E 001°59'816.1
2017-May-17 03:00N 51°07' E 001°47'816.5
2017-May-17 02:30N 51°01' E 001°38'917.3
2017-May-17 02:00N 50°55' E 001°29'916.8
2017-May-17 01:29N 50°47' E 001°24'816.2
2017-May-17 01:00N 50°40' E 001°18'916.7
2017-May-17 00:28N 50°35' E 001°07'2116.9
2017-May-16 23:15N 50°25' E 000°38'416.6
2017-May-16 23:00N 50°24' E 000°32'817.0
2017-May-16 22:30N 50°21' E 000°19'816.9
2017-May-16 22:00N 50°19' E 000°07'816.8
2017-May-16 21:30N 50°17' W 000°06'917.8
2017-May-16 21:00N 50°15' W 000°20'917.5
2017-May-16 20:30N 50°12' W 000°33'917.3
2017-May-16 20:00N 50°09' W 000°46'817.0
2017-May-16 19:30N 50°07' W 000°58'917.3
2017-May-16 19:00N 50°06' W 001°11'917.1
2017-May-16 18:30N 50°04' W 001°25'8516.8
2017-May-16 13:25N 49°42' W 003°33'1316.2
2017-May-16 12:37N 49°39' W 003°53'816.6
2017-May-16 12:06N 49°37' W 004°05'9016.9
2017-May-16 06:44N 49°00' W 006°12'  

Dump ship's entire track history